createdAt,value
2023-05-09T00:00:44.542Z,129.3846
2023-05-09T00:01:45.588Z,129.0000
2023-05-09T00:02:46.522Z,127.0769
2023-05-09T00:03:47.561Z,124.7692
2023-05-09T00:04:48.718Z,124.3846
2023-05-09T00:05:49.671Z,123.3846
2023-05-09T00:06:50.720Z,124.3077
2023-05-09T00:07:51.617Z,127.3077
2023-05-09T00:08:52.781Z,125.3846
2023-05-09T00:09:53.739Z,128.3077
2023-05-09T00:10:54.791Z,126.4615
2023-05-09T00:11:55.733Z,126.6154
2023-05-09T00:12:56.852Z,129.1538
2023-05-09T00:13:57.811Z,124.8462
2023-05-09T00:14:58.931Z,119.8462
2023-05-09T00:15:59.941Z,125.6154
2023-05-09T00:17:00.962Z,122.9231
2023-05-09T00:18:01.968Z,125.3846
2023-05-09T00:19:02.992Z,123.8462
2023-05-09T00:20:04.053Z,124.2308
2023-05-09T00:21:05.113Z,125.2308
2023-05-09T00:22:06.065Z,120.3077
2023-05-09T00:23:07.106Z,119.3077
2023-05-09T00:24:08.167Z,118.4615
2023-05-09T00:25:09.216Z,120.7692
2023-05-09T00:26:10.227Z,123.1538
2023-05-09T00:27:11.105Z,126.5385
2023-05-09T00:28:12.120Z,123.8462
2023-05-09T00:29:13.165Z,121.8462
2023-05-09T00:30:14.195Z,118.4615
2023-05-09T00:31:15.260Z,122.4615
2023-05-09T00:32:16.435Z,122.8462
2023-05-09T00:33:17.295Z,122.4615
2023-05-09T00:34:18.291Z,117.3846
2023-05-09T00:35:19.374Z,113.9231
2023-05-09T00:36:20.371Z,110.9231
2023-05-09T00:37:21.400Z,112.3077
2023-05-09T00:38:22.418Z,113.3846
2023-05-09T00:39:23.462Z,115.5385
2023-05-09T00:40:24.503Z,113.6154
2023-05-09T00:41:25.549Z,114.1538
2023-05-09T00:42:26.524Z,115.0000
2023-05-09T00:43:27.579Z,118.1538
2023-05-09T00:44:28.593Z,118.3846
2023-05-09T00:45:29.665Z,118.7692
2023-05-09T00:46:30.804Z,116.6154
2023-05-09T00:47:31.772Z,114.5385
2023-05-09T00:48:32.710Z,112.2308
2023-05-09T00:49:33.749Z,111.2308
2023-05-09T00:50:34.779Z,110.5385
2023-05-09T00:51:35.814Z,107.0000
2023-05-09T00:52:36.831Z,110.1538
2023-05-09T00:53:37.875Z,111.9231
2023-05-09T00:54:38.890Z,107.4615
2023-05-09T00:55:40.007Z,110.8462
2023-05-09T00:56:41.011Z,109.9231
2023-05-09T00:57:41.996Z,106.9231
2023-05-09T00:58:43.049Z,104.0000
2023-05-09T00:59:44.078Z,103.6923
2023-05-09T01:00:45.135Z,105.3846
2023-05-09T01:01:46.224Z,106.0000
2023-05-09T01:02:47.273Z,106.5385
2023-05-09T01:03:48.272Z,105.9231
2023-05-09T01:04:49.226Z,107.0769
2023-05-09T01:05:50.258Z,101.9231
2023-05-09T01:06:51.326Z,104.7692
2023-05-09T01:07:52.313Z,106.5385
2023-05-09T01:08:53.355Z,105.2308
2023-05-09T01:09:54.353Z,105.0000
2023-05-09T01:10:55.436Z,104.1538
2023-05-09T01:11:56.454Z,104.2308
2023-05-09T01:12:57.534Z,102.4615
2023-05-09T01:13:58.474Z,104.6923
2023-05-09T01:14:59.533Z,105.0000
2023-05-09T01:16:00.562Z,102.6154
2023-05-09T01:17:01.613Z,107.3077
2023-05-09T01:18:02.778Z,106.9231
2023-05-09T01:19:03.691Z,106.3846
2023-05-09T01:20:04.718Z,105.3077
2023-05-09T01:21:05.772Z,105.7692
2023-05-09T01:22:06.854Z,108.6923
2023-05-09T01:23:07.868Z,112.5385
2023-05-09T01:24:08.873Z,112.6154
2023-05-09T01:25:09.889Z,111.7692
2023-05-09T01:26:10.917Z,112.1538
2023-05-09T01:27:11.995Z,112.1538
2023-05-09T01:28:12.994Z,112.5385
2023-05-09T01:29:14.090Z,110.1538
2023-05-09T01:30:15.042Z,106.3846
2023-05-09T01:31:16.224Z,103.1538
2023-05-09T01:32:17.209Z,104.3077
2023-05-09T01:33:18.372Z,104.6154
2023-05-09T01:34:19.300Z,102.5385
2023-05-09T01:35:20.312Z,101.6154
2023-05-09T01:36:21.293Z,103.3077
2023-05-09T01:37:22.370Z,104.9231
2023-05-09T01:38:23.441Z,104.4615
2023-05-09T01:39:24.528Z,103.2308
2023-05-09T01:40:25.416Z,102.6923
2023-05-09T01:41:26.477Z,102.1538
2023-05-09T01:42:27.628Z,103.8462
2023-05-09T01:43:28.618Z,102.3846
2023-05-09T01:44:29.542Z,103.0000
2023-05-09T01:45:30.595Z,100.7692
2023-05-09T01:46:31.744Z,96.5385
2023-05-09T01:47:32.757Z,97.0000
2023-05-09T01:48:33.794Z,99.4615
2023-05-09T01:49:34.735Z,100.6154
2023-05-09T01:50:35.752Z,98.5385
2023-05-09T01:51:36.804Z,99.6923
2023-05-09T01:52:37.853Z,99.0769
2023-05-09T01:53:38.933Z,103.1538
2023-05-09T01:54:39.949Z,99.6923
2023-05-09T01:55:40.951Z,100.9231
2023-05-09T01:56:41.935Z,101.8462
2023-05-09T01:57:43.040Z,98.6154
2023-05-09T01:58:44.072Z,103.4615
2023-05-09T01:59:45.128Z,102.2308
2023-05-09T02:00:46.119Z,101.3077
2023-05-09T02:01:47.121Z,99.6923
2023-05-09T02:02:48.206Z,97.6154
2023-05-09T02:03:49.282Z,100.8462
2023-05-09T02:04:50.357Z,97.8462
2023-05-09T02:05:51.226Z,99.4615
2023-05-09T02:06:52.267Z,96.6154
2023-05-09T02:07:53.308Z,95.9231
2023-05-09T02:08:54.352Z,99.1538
2023-05-09T02:09:55.387Z,98.3077
2023-05-09T02:10:56.386Z,104.6154
2023-05-09T02:11:57.385Z,99.3846
2023-05-09T02:12:58.441Z,96.0000
2023-05-09T02:13:59.492Z,96.0000
2023-05-09T02:15:00.566Z,95.1538
2023-05-09T02:16:01.496Z,93.6154
2023-05-09T02:17:02.646Z,92.3077
2023-05-09T02:18:03.603Z,92.3077
2023-05-09T02:19:04.727Z,90.9231
2023-05-09T02:20:05.689Z,93.6923
2023-05-09T02:21:06.687Z,91.9231
2023-05-09T02:22:07.690Z,92.6154
2023-05-09T02:23:08.730Z,92.0769
2023-05-09T02:24:09.831Z,90.7692
2023-05-09T02:25:10.829Z,95.7692
2023-05-09T02:26:11.836Z,96.7692
2023-05-09T02:27:12.931Z,95.3077
2023-05-09T02:28:13.896Z,89.6154
2023-05-09T02:29:14.960Z,92.3846
2023-05-09T02:30:16.070Z,96.5385
2023-05-09T02:31:16.971Z,97.7692
2023-05-09T02:32:18.031Z,98.1538
2023-05-09T02:33:19.024Z,99.3846
2023-05-09T02:34:20.182Z,100.5385
2023-05-09T02:35:21.130Z,101.1538
2023-05-09T02:36:22.232Z,104.6923
2023-05-09T02:37:23.131Z,103.9231
2023-05-09T02:38:24.194Z,103.4615
2023-05-09T02:39:25.269Z,104.0000
2023-05-09T02:40:26.339Z,106.6923
2023-05-09T02:41:27.291Z,106.6154
2023-05-09T02:42:28.309Z,106.3077
2023-05-09T02:43:29.329Z,110.8462
2023-05-09T02:44:30.428Z,108.7692
2023-05-09T02:45:31.452Z,108.6923
2023-05-09T02:46:32.644Z,108.9231
2023-05-09T02:47:33.616Z,109.6923
2023-05-09T02:48:34.490Z,106.0000
2023-05-09T02:49:35.666Z,104.5385
2023-05-09T02:50:36.672Z,106.6154
2023-05-09T02:51:37.584Z,105.5385
2023-05-09T02:52:38.669Z,105.3077
2023-05-09T02:53:39.666Z,104.3077
2023-05-09T02:54:40.844Z,103.3077
2023-05-09T02:55:41.823Z,103.9231
2023-05-09T02:56:42.751Z,103.7692
2023-05-09T02:57:43.771Z,104.1538
2023-05-09T02:58:44.812Z,107.8462
2023-05-09T02:59:45.904Z,107.5385
2023-05-09T03:00:46.959Z,106.6923
2023-05-09T03:01:47.933Z,106.7692
2023-05-09T03:02:49.020Z,104.0769
2023-05-09T03:03:49.989Z,106.0769
2023-05-09T03:04:51.157Z,105.4615
2023-05-09T03:05:52.073Z,106.0769
2023-05-09T03:06:53.066Z,104.7692
2023-05-09T03:07:54.104Z,102.6923
2023-05-09T03:08:55.092Z,104.3077
2023-05-09T03:09:56.229Z,100.0769
2023-05-09T03:10:57.264Z,101.3077
2023-05-09T03:11:58.217Z,98.8462
2023-05-09T03:12:59.250Z,98.9231
2023-05-09T03:14:00.283Z,103.8462
2023-05-09T03:15:01.369Z,102.5385
2023-05-09T03:16:02.437Z,105.9231
2023-05-09T03:17:03.344Z,109.7692
2023-05-09T03:18:04.510Z,109.8462
2023-05-09T03:19:05.415Z,109.7692
2023-05-09T03:20:06.549Z,108.3077
2023-05-09T03:21:07.616Z,107.5385
2023-05-09T03:22:08.493Z,110.8462
2023-05-09T03:23:09.507Z,109.5385
2023-05-09T03:24:10.634Z,107.3846
2023-05-09T03:25:11.764Z,110.2308
2023-05-09T03:26:12.665Z,111.0000
2023-05-09T03:27:13.618Z,108.8462
2023-05-09T03:28:14.666Z,110.5385
2023-05-09T03:29:15.669Z,111.1538
2023-05-09T03:30:16.806Z,109.3077
2023-05-09T03:31:17.797Z,104.8462
2023-05-09T03:32:18.789Z,104.0000
2023-05-09T03:33:19.772Z,104.9231
2023-05-09T03:34:20.836Z,104.3077
2023-05-09T03:35:22.034Z,105.2308
2023-05-09T03:36:22.934Z,105.8462
2023-05-09T03:37:25.532Z,98.3846
2023-05-09T03:38:24.975Z,85.9231
2023-05-09T03:39:26.067Z,71.8462
2023-05-09T03:40:27.106Z,72.1538
2023-05-09T03:41:28.147Z,79.6154
2023-05-09T03:42:29.186Z,79.6154
2023-05-09T03:43:30.096Z,86.9231
2023-05-09T03:44:31.153Z,89.7692
2023-05-09T03:45:32.241Z,96.3846
2023-05-09T03:46:33.295Z,99.9231
2023-05-09T03:47:34.313Z,98.1538
2023-05-09T03:48:35.266Z,98.1538
2023-05-09T03:49:36.379Z,98.3846
2023-05-09T03:50:37.480Z,101.3077
2023-05-09T03:51:39.868Z,103.2308
2023-05-09T03:52:39.402Z,104.5385
2023-05-09T03:53:40.431Z,104.9231
2023-05-09T03:54:41.433Z,106.2308
2023-05-09T03:55:42.546Z,110.3846
2023-05-09T03:56:43.601Z,108.3077
2023-05-09T03:57:44.519Z,109.3846
2023-05-09T03:58:45.548Z,108.0769
2023-05-09T03:59:46.630Z,110.6154
2023-05-09T04:00:47.635Z,110.1538
2023-05-09T04:01:48.713Z,111.0769
2023-05-09T04:02:49.727Z,110.1538
2023-05-09T04:03:50.775Z,112.5385
2023-05-09T04:04:51.732Z,113.0000
2023-05-09T04:05:52.841Z,114.0000
2023-05-09T04:06:53.882Z,117.3846
2023-05-09T04:07:54.777Z,115.8462
2023-05-09T04:08:55.898Z,117.6923
2023-05-09T04:09:56.921Z,115.9231
2023-05-09T04:10:57.937Z,114.4615
2023-05-09T04:11:58.933Z,115.3846
2023-05-09T04:12:59.974Z,113.4615
2023-05-09T04:14:00.958Z,114.5385
2023-05-09T04:15:01.987Z,115.9231
2023-05-09T04:16:03.050Z,117.0769
2023-05-09T04:17:04.186Z,114.2308
2023-05-09T04:18:05.163Z,118.9231
2023-05-09T04:19:06.100Z,119.3846
2023-05-09T04:20:07.147Z,121.7692
2023-05-09T04:21:08.298Z,122.2308
2023-05-09T04:22:09.282Z,123.7692
2023-05-09T04:23:10.224Z,119.8462
2023-05-09T04:24:11.257Z,121.5385
2023-05-09T04:25:12.379Z,120.3846
2023-05-09T04:26:13.361Z,125.3077
2023-05-09T04:27:14.390Z,121.6923
2023-05-09T04:28:15.370Z,116.2308
2023-05-09T04:29:16.344Z,114.3846
2023-05-09T04:30:17.490Z,116.4615
2023-05-09T04:31:18.572Z,119.0000
2023-05-09T04:32:19.580Z,120.0000
2023-05-09T04:33:20.509Z,120.6923
2023-05-09T04:34:21.561Z,123.3846
2023-05-09T04:35:22.907Z,123.1538
2023-05-09T04:36:23.693Z,125.4615
2023-05-09T04:37:24.638Z,125.9231
2023-05-09T04:38:25.651Z,125.8462
2023-05-09T04:39:26.656Z,129.3077
2023-05-09T04:40:27.716Z,127.8462
2023-05-09T04:41:28.802Z,129.3846
2023-05-09T04:42:29.830Z,130.2308
2023-05-09T04:43:30.831Z,129.1538
2023-05-09T04:44:31.829Z,131.0769
2023-05-09T04:45:32.820Z,131.9231
2023-05-09T04:46:34.081Z,129.9231
2023-05-09T04:47:35.053Z,128.2308
2023-05-09T04:48:35.911Z,129.3077
2023-05-09T04:49:37.008Z,129.9231
2023-05-09T04:50:37.967Z,130.9231
2023-05-09T04:51:39.112Z,136.3846
2023-05-09T04:52:40.145Z,131.0769
2023-05-09T04:53:41.058Z,130.2308
2023-05-09T04:54:42.086Z,131.3077
2023-05-09T04:55:43.142Z,131.0769
2023-05-09T04:56:44.202Z,135.9231
2023-05-09T04:57:45.221Z,137.3846
2023-05-09T04:58:46.185Z,139.4615
2023-05-09T04:59:47.268Z,137.8462
2023-05-09T05:00:48.222Z,133.1538
2023-05-09T05:01:49.381Z,134.9231
2023-05-09T05:02:50.392Z,129.7692
2023-05-09T05:03:51.422Z,115.4615
2023-05-09T05:04:56.017Z,89.9231
2023-05-09T05:05:53.498Z,104.8462
2023-05-09T05:06:54.546Z,119.0000
2023-05-09T05:07:55.533Z,123.0000
2023-05-09T05:08:56.478Z,127.0000
2023-05-09T05:09:57.520Z,130.3846
2023-05-09T05:10:58.633Z,128.6923
2023-05-09T05:12:02.844Z,130.0000
2023-05-09T05:13:00.754Z,133.2308
2023-05-09T05:14:01.613Z,137.4615
2023-05-09T05:15:02.753Z,138.0769
2023-05-09T05:16:03.757Z,149.0769
2023-05-09T05:17:04.788Z,158.7692
2023-05-09T05:18:05.861Z,155.6154
2023-05-09T05:19:06.958Z,156.7692
2023-05-09T05:20:07.857Z,156.6154
2023-05-09T05:21:08.917Z,153.5385
2023-05-09T05:22:10.067Z,149.0769
2023-05-09T05:23:11.021Z,141.3846
2023-05-09T05:24:11.973Z,142.0769
2023-05-09T05:25:13.188Z,143.3846
2023-05-09T05:26:14.096Z,141.9231
2023-05-09T05:27:15.163Z,140.9231
2023-05-09T05:28:16.197Z,143.4615
2023-05-09T05:29:17.136Z,148.0769
2023-05-09T05:30:18.145Z,151.1538
2023-05-09T05:31:19.235Z,155.0000
2023-05-09T05:32:20.219Z,157.0000
2023-05-09T05:33:21.273Z,152.6154
2023-05-09T05:34:22.272Z,147.9231
2023-05-09T05:35:23.373Z,150.2308
2023-05-09T05:36:24.384Z,148.0769
2023-05-09T05:37:25.440Z,150.0000
2023-05-09T05:38:26.434Z,144.8462
2023-05-09T05:39:27.420Z,153.0769
2023-05-09T05:40:28.453Z,155.3846
2023-05-09T05:41:29.459Z,154.9231
2023-05-09T05:42:30.592Z,162.3846
2023-05-09T05:43:31.569Z,156.1538
2023-05-09T05:44:32.551Z,154.7692
2023-05-09T05:45:33.578Z,152.6154
2023-05-09T05:46:34.607Z,154.0000
2023-05-09T05:47:35.707Z,157.3077
2023-05-09T05:48:36.674Z,157.3077
2023-05-09T05:49:37.651Z,149.6154
2023-05-09T05:50:38.771Z,132.8462
2023-05-09T05:51:39.737Z,118.7692
2023-05-09T05:52:40.859Z,119.5385
2023-05-09T05:53:41.851Z,127.7692
2023-05-09T05:54:42.832Z,134.1538
2023-05-09T05:55:43.857Z,136.5385
2023-05-09T05:56:44.951Z,140.0000
2023-05-09T05:57:45.992Z,148.2308
2023-05-09T05:58:46.992Z,149.0000
2023-05-09T05:59:47.950Z,151.0000
2023-05-09T06:00:48.986Z,152.5385
2023-05-09T06:01:50.005Z,174.7692
2023-05-09T06:02:51.168Z,141.9231
2023-05-09T06:03:52.162Z,135.7692
2023-05-09T06:04:54.654Z,143.8462
2023-05-09T06:05:54.109Z,154.8462
2023-05-09T06:06:55.130Z,152.4615
2023-05-09T06:07:56.272Z,140.5385
2023-05-09T06:08:57.233Z,105.9231
2023-05-09T06:09:58.247Z,105.6923
2023-05-09T06:10:59.252Z,129.3846
2023-05-09T06:12:00.356Z,151.0769
2023-05-09T06:13:01.435Z,149.0000
2023-05-09T06:14:02.452Z,155.5385
2023-05-09T06:15:03.338Z,183.6154
2023-05-09T06:16:18.653Z,182.6154
2023-05-09T06:17:05.465Z,183.0769
2023-05-09T06:18:06.584Z,180.8462
2023-05-09T06:19:07.510Z,174.0769
2023-05-09T06:20:08.495Z,169.7692
2023-05-09T06:21:09.493Z,163.5385
2023-05-09T06:22:10.548Z,160.2308
2023-05-09T06:23:11.692Z,154.9231
2023-05-09T06:24:23.538Z,149.9231
2023-05-09T06:25:13.862Z,144.6154
2023-05-09T06:26:14.813Z,142.7692
2023-05-09T06:27:15.709Z,137.8462
2023-05-09T06:28:16.802Z,138.2308
2023-05-09T06:29:17.855Z,143.3846
2023-05-09T06:30:26.282Z,147.3846
2023-05-09T06:31:19.871Z,146.6923
2023-05-09T06:32:20.837Z,143.7692
2023-05-09T06:33:21.959Z,143.6923
2023-05-09T06:34:22.958Z,140.7692
2023-05-09T06:35:23.966Z,136.5385
2023-05-09T06:36:25.000Z,136.0769
2023-05-09T06:37:26.016Z,134.6154
2023-05-09T06:38:27.126Z,140.1538
2023-05-09T06:39:28.092Z,135.9231
2023-05-09T06:40:29.154Z,140.3846
2023-05-09T06:41:30.140Z,137.6154
2023-05-09T06:42:31.140Z,141.0000
2023-05-09T06:43:32.213Z,141.9231
2023-05-09T06:44:33.266Z,142.3077
2023-05-09T06:45:34.258Z,135.8462
2023-05-09T06:46:35.367Z,136.6154
2023-05-09T06:47:36.316Z,142.3846
2023-05-09T06:48:37.323Z,142.8462
2023-05-09T06:49:38.446Z,143.5385
2023-05-09T06:50:39.429Z,145.7692
2023-05-09T06:51:40.376Z,152.6923
2023-05-09T06:52:41.414Z,152.7692
2023-05-09T06:53:42.495Z,152.3846
2023-05-09T06:54:43.517Z,150.3846
2023-05-09T06:55:44.515Z,149.8462
2023-05-09T06:56:45.533Z,157.6154
2023-05-09T06:57:46.653Z,161.1538
2023-05-09T06:58:47.699Z,157.1538
2023-05-09T06:59:48.679Z,156.2308
2023-05-09T07:00:49.611Z,146.1538
2023-05-09T07:01:50.668Z,139.2308
2023-05-09T07:02:51.715Z,124.5385
2023-05-09T07:03:52.812Z,130.6923
2023-05-09T07:04:53.868Z,129.1538
2023-05-09T07:05:54.764Z,117.9231
2023-05-09T07:06:55.804Z,124.7692
2023-05-09T07:07:56.837Z,127.8462
2023-05-09T07:08:57.982Z,140.0769
2023-05-09T07:10:10.316Z,144.2308
2023-05-09T07:10:59.923Z,153.7692
2023-05-09T07:12:01.008Z,154.2308
2023-05-09T07:13:02.007Z,148.6154
2023-05-09T07:14:03.077Z,138.3846
2023-05-09T07:15:04.117Z,127.1538
2023-05-09T07:16:05.127Z,128.0000
2023-05-09T07:17:21.982Z,128.8462
2023-05-09T07:18:07.140Z,115.8462
2023-05-09T07:19:08.228Z,112.0769
2023-05-09T07:20:09.210Z,108.9231
2023-05-09T07:21:10.292Z,118.9231
2023-05-09T07:22:11.242Z,124.9231
2023-05-09T07:23:12.262Z,124.9231
2023-05-09T07:24:13.429Z,129.3846
2023-05-09T07:25:14.600Z,135.3846
2023-05-09T07:26:15.373Z,135.0769
2023-05-09T07:27:16.376Z,127.0769
2023-05-09T07:28:17.408Z,123.7692
2023-05-09T07:29:18.498Z,130.2308
2023-05-09T07:30:19.503Z,134.0769
2023-05-09T07:31:20.552Z,135.7692
2023-05-09T07:32:21.540Z,129.3077
2023-05-09T07:33:22.585Z,125.8462
2023-05-09T07:34:23.679Z,125.6154
2023-05-09T07:35:24.642Z,127.6154
2023-05-09T07:36:25.679Z,131.0769
2023-05-09T07:37:26.743Z,135.5385
2023-05-09T07:38:27.686Z,127.6923
2023-05-09T07:39:28.874Z,127.2308
2023-05-09T07:40:29.896Z,127.5385
2023-05-09T07:41:30.789Z,125.4615
2023-05-09T07:42:31.803Z,113.4615
2023-05-09T07:43:32.844Z,108.2308
2023-05-09T07:44:33.895Z,119.8462
2023-05-09T07:45:35.062Z,133.7692
2023-05-09T07:46:35.987Z,114.2308
2023-05-09T07:47:37.042Z,109.6154
2023-05-09T07:48:38.015Z,106.6154
2023-05-09T07:49:39.037Z,119.0000
2023-05-09T07:50:40.114Z,120.0000
2023-05-09T07:51:41.035Z,120.2308
2023-05-09T07:52:42.118Z,121.2308
2023-05-09T07:53:43.122Z,113.5385
2023-05-09T07:54:44.335Z,109.0769
2023-05-09T07:55:45.209Z,110.5385
2023-05-09T07:56:46.159Z,123.6154
2023-05-09T07:57:47.241Z,132.9231
2023-05-09T07:58:48.211Z,132.7692
2023-05-09T07:59:49.339Z,126.0000
2023-05-09T08:00:50.368Z,127.6154
2023-05-09T08:01:51.404Z,125.6154
2023-05-09T08:02:52.449Z,130.4615
2023-05-09T08:03:53.527Z,168.5385
2023-05-09T08:04:54.509Z,210.0769
2023-05-09T08:05:55.511Z,139.6154
2023-05-09T08:06:56.492Z,102.9231
2023-05-09T08:07:57.513Z,93.6154
2023-05-09T08:08:58.593Z,93.9231
2023-05-09T08:09:59.682Z,93.7692
2023-05-09T08:11:00.705Z,91.2308
2023-05-09T08:12:01.648Z,96.9231
2023-05-09T08:13:02.756Z,93.0769
2023-05-09T08:14:03.734Z,86.0769
2023-05-09T08:15:04.762Z,90.3846
2023-05-09T08:16:05.888Z,89.6923
2023-05-09T08:17:06.856Z,80.3846
2023-05-09T08:18:07.874Z,78.4615
2023-05-09T08:19:08.813Z,83.3846
2023-05-09T08:20:09.909Z,88.8462
2023-05-09T08:21:10.961Z,93.1538
2023-05-09T08:22:11.999Z,92.0000
2023-05-09T08:23:12.980Z,81.6923
2023-05-09T08:24:13.961Z,78.6923
2023-05-09T08:25:15.318Z,65.6154
2023-05-09T08:26:16.119Z,67.6154
2023-05-09T08:27:17.074Z,84.0769
2023-05-09T08:28:18.217Z,75.6923
2023-05-09T08:29:19.413Z,79.8462
2023-05-09T08:30:20.191Z,80.9231
2023-05-09T08:31:21.291Z,84.6923
2023-05-09T08:32:22.207Z,84.0000
2023-05-09T08:33:23.243Z,83.0769
2023-05-09T08:34:24.343Z,84.0000
2023-05-09T08:35:25.420Z,97.9231
2023-05-09T08:36:26.362Z,102.2308
2023-05-09T08:37:27.404Z,99.7692
2023-05-09T08:38:28.453Z,107.2308
2023-05-09T08:39:29.441Z,119.0769
2023-05-09T08:40:30.533Z,104.3846
2023-05-09T08:41:31.586Z,14.3077
2023-05-09T08:42:32.534Z,30.3846
2023-05-09T08:43:33.567Z,102.0769
2023-05-09T08:44:34.554Z,137.0769
2023-05-09T08:45:35.653Z,160.6154
2023-05-09T08:46:36.873Z,132.6923
2023-05-09T08:47:37.703Z,132.6154
2023-05-09T08:48:38.720Z,99.6923
2023-05-09T08:49:39.719Z,55.9231
2023-05-09T08:50:40.803Z,109.0769
2023-05-09T08:51:41.837Z,117.2308
2023-05-09T08:52:42.794Z,114.4615
2023-05-09T08:53:43.815Z,111.9231
2023-05-09T08:54:44.858Z,111.0769
2023-05-09T08:55:45.988Z,112.8462
2023-05-09T08:56:46.989Z,118.6923
2023-05-09T08:57:47.968Z,120.8462
2023-05-09T08:58:49.065Z,124.2308
2023-05-09T08:59:50.066Z,122.7692
2023-05-09T09:00:51.163Z,128.0000
2023-05-09T09:01:52.157Z,124.7692
2023-05-09T09:02:53.311Z,122.7692
2023-05-09T09:03:54.187Z,129.9231
2023-05-09T09:04:55.108Z,129.8462
2023-05-09T09:05:56.252Z,125.7692
2023-05-09T09:06:57.205Z,127.3077
2023-05-09T09:07:58.216Z,122.9231
2023-05-09T09:08:59.263Z,122.9231
2023-05-09T09:10:00.221Z,120.8462
2023-05-09T09:11:01.345Z,125.2308
2023-05-09T09:12:02.299Z,139.6923
2023-05-09T09:13:03.402Z,133.6923
2023-05-09T09:14:04.374Z,122.7692
2023-05-09T09:15:05.391Z,120.0000
2023-05-09T09:16:06.446Z,109.9231
2023-05-09T09:17:07.478Z,102.3846
2023-05-09T09:18:08.594Z,87.0769
2023-05-09T09:19:09.566Z,83.7692
2023-05-09T09:20:10.573Z,65.6923
2023-05-09T09:21:11.612Z,25.8462
2023-05-09T09:22:12.674Z,70.3846
2023-05-09T09:23:13.687Z,104.4615
2023-05-09T09:24:14.685Z,119.5385
2023-05-09T09:25:15.762Z,123.7692
2023-05-09T09:26:16.810Z,125.3077
2023-05-09T09:27:17.837Z,122.8462
2023-05-09T09:28:18.879Z,119.9231
2023-05-09T09:29:19.850Z,109.0769
2023-05-09T09:30:20.893Z,90.2308
2023-05-09T09:31:21.975Z,76.3846
2023-05-09T09:32:22.982Z,73.6923
2023-05-09T09:33:24.016Z,43.6154
2023-05-09T09:34:25.014Z,80.1538
2023-05-09T09:35:26.037Z,100.6923
2023-05-09T09:36:27.073Z,109.5385
2023-05-09T09:37:28.127Z,112.1538
2023-05-09T09:38:29.099Z,121.2308
2023-05-09T09:39:30.147Z,118.8462
2023-05-09T09:40:31.154Z,104.2308
2023-05-09T09:41:32.240Z,108.5385
2023-05-09T09:42:33.248Z,116.5385
2023-05-09T09:43:34.256Z,115.5385
2023-05-09T09:44:35.270Z,20.2308
2023-05-09T09:45:36.399Z,0.0000
2023-05-09T09:46:37.465Z,30.5385
2023-05-09T09:47:38.395Z,83.0769
2023-05-09T09:48:39.433Z,95.0000
2023-05-09T09:49:40.410Z,105.9231
2023-05-09T09:50:41.486Z,98.2308
2023-05-09T09:51:42.456Z,110.1538
2023-05-09T09:52:43.526Z,110.2308
2023-05-09T09:53:44.515Z,111.0769
2023-05-09T09:54:45.591Z,99.6923
2023-05-09T09:55:46.588Z,103.9231
2023-05-09T09:56:47.713Z,35.6154
2023-05-09T09:57:48.599Z,68.9231
2023-05-09T09:58:49.720Z,95.6923
2023-05-09T09:59:50.719Z,101.9231
2023-05-09T10:00:51.755Z,105.6154
2023-05-09T10:01:52.751Z,122.2308
2023-05-09T10:02:53.821Z,128.3846
2023-05-09T10:03:54.943Z,128.2308
2023-05-09T10:04:55.892Z,136.6154
2023-05-09T10:05:56.880Z,121.5385
2023-05-09T10:06:57.941Z,130.9231
2023-05-09T10:07:58.932Z,125.3846
2023-05-09T10:08:59.971Z,113.4615
2023-05-09T10:10:01.038Z,114.9231
2023-05-09T10:11:02.074Z,104.9231
2023-05-09T10:12:03.146Z,97.6923
2023-05-09T10:13:04.143Z,90.0769
2023-05-09T10:14:05.086Z,90.6154
2023-05-09T10:15:06.191Z,103.3846
2023-05-09T10:16:07.281Z,110.4615
2023-05-09T10:17:08.368Z,73.0769
2023-05-09T10:18:09.450Z,67.0769
2023-05-09T10:19:10.312Z,87.2308
2023-05-09T10:20:11.313Z,90.6154
2023-05-09T10:21:12.385Z,108.0000
2023-05-09T10:22:13.422Z,117.9231
2023-05-09T10:23:14.417Z,114.2308
2023-05-09T10:24:15.408Z,112.9231
2023-05-09T10:25:16.628Z,117.0769
2023-05-09T10:26:17.504Z,127.0769
2023-05-09T10:27:18.587Z,121.3077
2023-05-09T10:28:19.616Z,107.8462
2023-05-09T10:29:20.572Z,106.9231
2023-05-09T10:30:21.603Z,105.2308
2023-05-09T10:31:22.731Z,113.0000
2023-05-09T10:32:23.680Z,105.7692
2023-05-09T10:33:24.748Z,95.3846
2023-05-09T10:34:25.739Z,93.6923
2023-05-09T10:35:26.768Z,100.3846
2023-05-09T10:36:27.800Z,101.8462
2023-05-09T10:37:28.850Z,108.7692
2023-05-09T10:38:29.903Z,110.6923
2023-05-09T10:39:30.871Z,114.9231
2023-05-09T10:40:31.945Z,111.8462
2023-05-09T10:41:32.956Z,102.0769
2023-05-09T10:42:34.066Z,94.6154
2023-05-09T10:43:36.674Z,100.3846
2023-05-09T10:44:36.077Z,112.3846
2023-05-09T10:45:37.066Z,120.3846
2023-05-09T10:46:38.154Z,125.9231
2023-05-09T10:47:39.190Z,127.5385
2023-05-09T10:48:40.228Z,118.9231
2023-05-09T10:49:41.192Z,96.0769
2023-05-09T10:50:42.218Z,89.1538
2023-05-09T10:51:43.253Z,84.3846
2023-05-09T10:52:44.287Z,91.4615
2023-05-09T10:53:45.327Z,91.3077
2023-05-09T10:54:46.426Z,85.8462
2023-05-09T10:55:47.518Z,83.3846
2023-05-09T10:56:48.434Z,97.9231
2023-05-09T10:57:49.635Z,101.0769
2023-05-09T10:58:50.663Z,109.3077
2023-05-09T10:59:51.565Z,116.1538
2023-05-09T11:00:52.998Z,112.1538
2023-05-09T11:01:53.659Z,99.5385
2023-05-09T11:02:54.679Z,103.6154
2023-05-09T11:03:55.795Z,87.9231
2023-05-09T11:04:56.776Z,76.4615
2023-05-09T11:05:57.723Z,72.5385
2023-05-09T11:06:58.790Z,65.6923
2023-05-09T11:07:59.827Z,67.9231
2023-05-09T11:09:00.829Z,135.6154
2023-05-09T11:10:01.858Z,261.3077
2023-05-09T11:11:02.896Z,260.6154
2023-05-09T11:12:03.887Z,152.7692
2023-05-09T11:13:05.132Z,110.7692
2023-05-09T11:14:06.014Z,111.5385
2023-05-09T11:15:06.993Z,199.2308
2023-05-09T11:16:08.011Z,335.0769
2023-05-09T11:17:09.018Z,146.2308
2023-05-09T11:18:10.167Z,111.6923
2023-05-09T11:19:11.151Z,77.9231
2023-05-09T11:20:12.239Z,26.3077
2023-05-09T11:21:13.156Z,83.1538
2023-05-09T11:22:14.207Z,76.8462
2023-05-09T11:23:15.277Z,180.3077
2023-05-09T11:24:16.254Z,184.7692
2023-05-09T11:25:17.481Z,122.4615
2023-05-09T11:26:18.310Z,97.5385
2023-05-09T11:27:19.330Z,92.1538
2023-05-09T11:28:20.374Z,105.3077
2023-05-09T11:29:21.471Z,116.2308
2023-05-09T11:30:22.479Z,100.9231
2023-05-09T11:31:23.507Z,101.0000
2023-05-09T11:32:24.520Z,114.0000
2023-05-09T11:33:25.520Z,188.5385
2023-05-09T11:34:26.537Z,124.2308
2023-05-09T11:35:27.542Z,95.0000
2023-05-09T11:36:28.564Z,82.2308
2023-05-09T11:37:29.553Z,82.0769
2023-05-09T11:38:30.659Z,75.0000
2023-05-09T11:39:31.699Z,68.4615
2023-05-09T11:40:32.736Z,74.0769
2023-05-09T11:41:33.736Z,81.4615
2023-05-09T11:42:34.787Z,335.4615
2023-05-09T11:43:35.848Z,194.9231
2023-05-09T11:44:36.878Z,143.9231
2023-05-09T11:45:37.802Z,121.0769
2023-05-09T11:46:38.849Z,109.2308
2023-05-09T11:47:39.864Z,91.0769
2023-05-09T11:48:40.926Z,84.2308
2023-05-09T11:49:41.956Z,67.4615
2023-05-09T11:50:43.018Z,85.8462
2023-05-09T11:51:43.963Z,86.5385
2023-05-09T11:52:45.024Z,98.0769
2023-05-09T11:53:46.124Z,251.0000
2023-05-09T11:54:47.121Z,119.7692
2023-05-09T11:55:48.071Z,76.5385
2023-05-09T11:56:49.147Z,88.9231
2023-05-09T11:57:50.133Z,108.0769
2023-05-09T11:58:51.365Z,107.3077
2023-05-09T11:59:52.228Z,105.5385
2023-05-09T12:00:53.227Z,108.1538